createdAt,value
2018-09-18T00:02:13.866Z,99336.52
2018-09-18T00:04:41.396Z,99334.55
2018-09-18T00:07:08.969Z,99332.25
2018-09-18T00:09:36.690Z,99325.44
2018-09-18T00:12:04.220Z,99331.23
2018-09-18T00:14:31.777Z,99328.32
2018-09-18T00:16:59.327Z,99327.35
2018-09-18T00:19:26.869Z,99325.15
2018-09-18T00:21:55.167Z,99318.06
2018-09-18T00:24:22.738Z,99320.89
2018-09-18T00:26:50.271Z,99319.62
2018-09-18T00:29:17.807Z,99319.06
2018-09-18T00:31:46.110Z,99314.98
2018-09-18T00:34:13.642Z,99315.79
2018-09-18T00:36:41.161Z,99311.54
2018-09-18T00:39:08.743Z,99315.14
2018-09-18T00:41:36.420Z,99311.05
2018-09-18T00:44:03.988Z,99307.98
2018-09-18T00:46:31.546Z,99306.81
2018-09-18T00:48:59.132Z,99305.13
2018-09-18T00:51:26.712Z,99304.59
2018-09-18T00:53:54.271Z,99304.73
2018-09-18T00:56:21.805Z,99301.45
2018-09-18T00:58:49.348Z,99295.66
2018-09-18T01:01:16.903Z,99295.14
2018-09-18T01:03:44.483Z,99305.85
2018-09-18T01:06:12.059Z,99297.27
2018-09-18T01:08:39.625Z,99293.60
2018-09-18T01:11:07.173Z,99295.17
2018-09-18T01:13:34.742Z,99288.91
2018-09-18T01:16:02.300Z,99296.02
2018-09-18T01:18:29.871Z,99289.23
2018-09-18T01:20:57.402Z,99292.27
2018-09-18T01:23:24.949Z,99289.64
2018-09-18T01:25:52.506Z,99288.65
2018-09-18T01:28:20.016Z,99289.17
2018-09-18T01:30:47.581Z,99285.77
2018-09-18T01:33:15.240Z,99285.05
2018-09-18T01:35:42.938Z,99283.09
2018-09-18T01:38:10.493Z,99278.20
2018-09-18T01:40:38.072Z,99277.64
2018-09-18T01:43:05.881Z,99269.82
2018-09-18T01:45:33.453Z,99274.05
2018-09-18T01:48:00.986Z,99270.87
2018-09-18T01:50:28.580Z,99271.14
2018-09-18T01:52:56.086Z,99271.06
2018-09-18T01:55:23.613Z,99271.13
2018-09-18T01:57:51.178Z,99275.50
2018-09-18T02:00:18.943Z,99270.34
2018-09-18T02:02:46.573Z,99268.40
2018-09-18T02:05:14.492Z,99265.00
2018-09-18T02:07:42.152Z,99262.23
2018-09-18T02:10:09.820Z,99266.42
2018-09-18T02:12:37.388Z,99266.30
2018-09-18T02:15:05.104Z,99262.34
2018-09-18T02:17:32.709Z,99259.95
2018-09-18T02:20:00.287Z,99255.22
2018-09-18T02:22:27.906Z,99259.88
2018-09-18T02:24:55.497Z,99256.56
2018-09-18T02:27:23.189Z,99257.15
2018-09-18T02:29:50.902Z,99253.33
2018-09-18T02:32:18.577Z,99249.66
2018-09-18T02:34:46.386Z,99249.14
2018-09-18T02:37:14.057Z,99255.60
2018-09-18T02:39:41.714Z,99255.86
2018-09-18T02:42:09.474Z,99252.05
2018-09-18T02:44:37.164Z,99245.64
2018-09-18T02:47:04.716Z,99248.55
2018-09-18T02:49:32.272Z,99244.94
2018-09-18T02:52:00.278Z,99238.14
2018-09-18T02:54:28.183Z,99237.80
2018-09-18T02:56:56.357Z,99237.14
2018-09-18T02:59:24.322Z,99235.91
2018-09-18T03:01:52.150Z,99236.00
2018-09-18T03:04:19.843Z,99236.73
2018-09-18T03:06:47.369Z,99235.55
2018-09-18T03:09:14.876Z,99231.96
2018-09-18T03:11:42.543Z,99227.21
2018-09-18T03:14:10.052Z,99229.02
2018-09-18T03:16:37.570Z,99226.54
2018-09-18T03:19:05.107Z,99226.39
2018-09-18T03:21:32.687Z,99226.39
2018-09-18T03:24:00.204Z,99221.08
2018-09-18T03:26:27.784Z,99223.73
2018-09-18T03:28:55.363Z,99219.44
2018-09-18T03:31:22.904Z,99219.08
2018-09-18T03:33:50.564Z,99218.27
2018-09-18T03:36:18.146Z,99214.58
2018-09-18T03:38:45.721Z,99225.73
2018-09-18T03:41:13.270Z,99217.00
2018-09-18T03:43:40.854Z,99215.16
2018-09-18T03:46:08.395Z,99209.22
2018-09-18T03:48:35.958Z,99205.31
2018-09-18T03:51:03.516Z,99205.14
2018-09-18T03:53:31.073Z,99213.98
2018-09-18T03:55:58.596Z,99208.76
2018-09-18T03:58:26.266Z,99202.19
2018-09-18T04:00:53.817Z,99207.59
2018-09-18T04:03:21.329Z,99202.58
2018-09-18T04:05:48.930Z,99203.64
2018-09-18T04:08:16.470Z,99199.34
2018-09-18T04:10:44.033Z,99197.78
2018-09-18T04:13:11.686Z,99191.28
2018-09-18T04:15:39.248Z,99191.83
2018-09-18T04:18:06.769Z,99185.72
2018-09-18T04:20:34.449Z,99178.89
2018-09-18T04:23:01.978Z,99182.45
2018-09-18T04:25:29.529Z,99178.22
2018-09-18T04:27:57.074Z,99177.58
2018-09-18T04:30:24.654Z,99183.01
2018-09-18T04:32:52.195Z,99175.38
2018-09-18T04:35:19.706Z,99172.04
2018-09-18T04:37:47.272Z,99174.42
2018-09-18T04:40:14.826Z,99173.14
2018-09-18T04:42:42.349Z,99174.84
2018-09-18T04:45:09.927Z,99174.35
2018-09-18T04:47:37.475Z,99177.30
2018-09-18T04:50:04.992Z,99171.83
2018-09-18T04:52:32.685Z,99166.89
2018-09-18T04:55:00.486Z,99174.09
2018-09-18T04:57:27.972Z,99174.03
2018-09-18T04:59:55.537Z,99172.86
2018-09-18T05:02:23.116Z,99172.78
2018-09-18T05:04:50.685Z,99171.63
2018-09-18T05:07:18.224Z,99165.16
2018-09-18T05:09:45.774Z,99168.00
2018-09-18T05:12:13.319Z,99168.98
2018-09-18T05:14:40.895Z,99163.70
2018-09-18T05:17:08.418Z,99156.20
2018-09-18T05:19:35.991Z,99160.95
2018-09-18T05:22:03.506Z,99159.30
2018-09-18T05:24:31.029Z,99149.67
2018-09-18T05:26:58.577Z,99162.95
2018-09-18T05:29:26.140Z,99162.77
2018-09-18T05:31:53.820Z,99162.95
2018-09-18T05:34:21.382Z,99160.53
2018-09-18T05:36:48.932Z,99166.89
2018-09-18T05:39:16.511Z,99159.93
2018-09-18T05:41:44.047Z,99162.13
2018-09-18T05:44:11.631Z,99164.19
2018-09-18T05:46:39.162Z,99158.47
2018-09-18T05:49:06.737Z,99160.64
2018-09-18T05:51:34.297Z,99161.00
2018-09-18T05:54:01.811Z,99159.90
2018-09-18T05:56:29.354Z,99172.86
2018-09-18T05:58:56.931Z,99163.73
2018-09-18T06:01:24.470Z,99164.13
2018-09-18T06:03:52.036Z,99163.80
2018-09-18T06:06:20.337Z,99164.73
2018-09-18T06:08:47.866Z,99161.92
2018-09-18T06:11:15.451Z,99164.13
2018-09-18T06:13:43.077Z,99170.94
2018-09-18T06:16:10.598Z,99163.58
2018-09-18T06:18:38.331Z,99165.86
2018-09-18T06:21:06.032Z,99158.59
2018-09-18T06:23:33.650Z,99171.53
2018-09-18T06:26:01.187Z,99173.83
2018-09-18T06:28:28.775Z,99169.80
2018-09-18T06:30:56.347Z,99167.18
2018-09-18T06:33:23.922Z,99168.54
2018-09-18T06:35:51.506Z,99173.66
2018-09-18T06:38:19.058Z,99173.67
2018-09-18T06:40:46.657Z,99175.62
2018-09-18T06:43:14.174Z,99172.17
2018-09-18T06:45:41.726Z,99177.44
2018-09-18T06:48:09.294Z,99179.38
2018-09-18T06:50:36.860Z,99177.78
2018-09-18T06:53:04.451Z,99171.02
2018-09-18T06:55:31.989Z,99175.58
2018-09-18T06:57:59.542Z,99175.66
2018-09-18T07:00:27.529Z,99177.39
2018-09-18T07:02:55.090Z,99177.38
2018-09-18T07:05:22.669Z,99173.72
2018-09-18T07:07:50.221Z,99172.03
2018-09-18T07:10:17.799Z,99175.08
2018-09-18T07:12:45.380Z,99176.31
2018-09-18T07:15:12.900Z,99172.17
2018-09-18T07:17:40.471Z,99168.98
2018-09-18T07:20:08.036Z,99170.50
2018-09-18T07:22:35.538Z,99172.17
2018-09-18T07:25:03.071Z,99170.53
2018-09-18T07:27:30.636Z,99172.50
2018-09-18T07:29:58.196Z,99172.85
2018-09-18T07:32:25.711Z,99171.61
2018-09-18T07:34:53.290Z,99174.23
2018-09-18T07:37:20.875Z,99175.45
2018-09-18T07:39:48.439Z,99178.49
2018-09-18T07:42:15.979Z,99170.45
2018-09-18T07:44:43.559Z,99177.44
2018-09-18T07:47:11.117Z,99174.61
2018-09-18T07:49:38.680Z,99174.31
2018-09-18T07:52:06.228Z,99169.20
2018-09-18T07:54:33.798Z,99174.02
2018-09-18T07:57:01.393Z,99172.97
2018-09-18T07:59:28.975Z,99165.03
2018-09-18T08:01:56.575Z,99155.03
2018-09-18T08:04:24.097Z,99163.55
2018-09-18T08:06:51.630Z,99155.87
2018-09-18T08:09:19.206Z,99158.75
2018-09-18T08:11:46.938Z,99162.23
2018-09-18T08:14:14.499Z,99157.85
2018-09-18T08:16:42.083Z,99160.26
2018-09-18T08:19:09.657Z,99161.98
2018-09-18T08:21:37.424Z,99155.87
2018-09-18T08:24:04.991Z,99159.12
2018-09-18T08:26:32.992Z,99151.95
2018-09-18T08:29:00.539Z,99155.05
2018-09-18T08:31:28.101Z,99156.48
2018-09-18T08:33:55.639Z,99152.69
2018-09-18T08:36:23.385Z,99150.84
2018-09-18T08:38:50.912Z,99157.47
2018-09-18T08:41:18.490Z,99147.44
2018-09-18T08:43:46.082Z,99153.17
2018-09-18T08:46:13.694Z,99147.48
2018-09-18T08:48:41.259Z,99155.13
2018-09-18T08:51:08.808Z,99151.09
2018-09-18T08:53:36.397Z,99150.24
2018-09-18T08:56:03.922Z,99152.48
2018-09-18T08:58:31.444Z,99154.08
2018-09-18T09:00:59.206Z,99147.34
2018-09-18T09:03:26.755Z,99154.87
2018-09-18T09:05:54.472Z,99150.55
2018-09-18T09:08:22.003Z,99155.44
2018-09-18T09:10:49.543Z,99155.83
2018-09-18T09:13:17.053Z,99159.45
2018-09-18T09:15:44.735Z,99158.69
2018-09-18T09:18:12.419Z,99158.95
2018-09-18T09:20:39.942Z,99165.57
2018-09-18T09:23:07.644Z,99165.84
2018-09-18T09:25:35.098Z,99160.97
2018-09-18T09:28:02.762Z,99159.91
2018-09-18T09:30:30.250Z,99162.36
2018-09-18T09:32:57.841Z,99161.56
2018-09-18T09:35:25.463Z,99156.19
2018-09-18T09:37:53.259Z,99165.86
2018-09-18T09:40:20.885Z,99158.32
2018-09-18T09:42:48.412Z,99163.17
2018-09-18T09:45:15.984Z,99165.21
2018-09-18T09:47:44.002Z,99153.72
2018-09-18T09:50:11.951Z,99161.44
2018-09-18T09:52:39.494Z,99159.20
2018-09-18T09:55:07.040Z,99163.10
2018-09-18T09:57:34.763Z,99163.55
2018-09-18T10:00:02.277Z,99157.59
2018-09-18T10:02:29.862Z,99156.23
2018-09-18T10:04:57.371Z,99154.48
2018-09-18T10:07:24.955Z,99162.48
2018-09-18T10:09:52.537Z,99148.98
2018-09-18T10:12:20.057Z,99157.11
2018-09-18T10:14:47.633Z,99147.45
2018-09-18T10:17:15.171Z,99150.68
2018-09-18T10:19:42.753Z,99156.03
2018-09-18T10:22:10.320Z,99145.00
2018-09-18T10:24:38.248Z,99143.39
2018-09-18T10:27:06.247Z,99149.88
2018-09-18T10:29:34.171Z,99148.34
2018-09-18T10:32:02.137Z,99148.44
2018-09-18T10:34:30.146Z,99150.27
2018-09-18T10:36:58.052Z,99154.33
2018-09-18T10:39:26.040Z,99151.37
2018-09-18T10:41:54.047Z,99155.04
2018-09-18T10:44:22.030Z,99151.82
2018-09-18T10:46:49.631Z,99152.05
2018-09-18T10:49:17.182Z,99163.40
2018-09-18T10:51:44.717Z,99166.78
2018-09-18T10:54:12.268Z,99160.48
2018-09-18T10:56:39.887Z,99143.22
2018-09-18T10:59:07.427Z,99149.44
2018-09-18T11:01:34.999Z,99150.64
2018-09-18T11:04:02.562Z,99146.39
2018-09-18T11:06:30.104Z,99145.52
2018-09-18T11:08:57.706Z,99135.77
2018-09-18T11:11:25.252Z,99138.62
2018-09-18T11:13:52.904Z,99137.11
2018-09-18T11:16:20.381Z,99131.64
2018-09-18T11:18:48.292Z,99133.50
2018-09-18T11:21:16.325Z,99128.55
2018-09-18T11:23:44.242Z,99123.94
2018-09-18T11:26:12.134Z,99132.54
2018-09-18T11:28:40.007Z,99121.23
2018-09-18T11:31:08.188Z,99118.59
2018-09-18T11:33:36.117Z,99119.33
2018-09-18T11:36:03.771Z,99118.02
2018-09-18T11:38:31.276Z,99124.44
2018-09-18T11:40:58.850Z,99122.70
2018-09-18T11:43:26.379Z,99114.55
2018-09-18T11:45:54.017Z,99129.05
2018-09-18T11:48:21.503Z,99124.01
2018-09-18T11:50:49.065Z,99115.39
2018-09-18T11:53:16.621Z,99112.52
2018-09-18T11:55:44.165Z,99113.69
2018-09-18T11:58:12.053Z,99110.05
2018-09-18T12:00:39.591Z,99118.17
2018-09-18T12:03:07.178Z,99111.05
2018-09-18T12:05:34.758Z,99108.80
2018-09-18T12:08:02.306Z,99111.45
2018-09-18T12:10:29.863Z,99105.23
2018-09-18T12:12:57.367Z,99122.34
2018-09-18T12:15:24.933Z,99106.92
2018-09-18T12:17:52.465Z,99103.88
2018-09-18T12:20:20.029Z,99098.02
2018-09-18T12:22:47.650Z,99101.09
2018-09-18T12:25:15.121Z,99095.28
2018-09-18T12:27:42.690Z,99093.39
2018-09-18T12:30:10.214Z,99093.53
2018-09-18T12:32:37.894Z,99088.82
2018-09-18T12:35:05.472Z,99080.17
2018-09-18T12:37:33.289Z,99092.03
2018-09-18T12:40:03.474Z,99079.64
2018-09-18T12:42:31.520Z,99076.83
2018-09-18T12:44:59.303Z,99079.70
2018-09-18T12:47:27.219Z,99078.61
2018-09-18T12:49:55.628Z,99079.42
2018-09-18T12:52:23.416Z,99080.22
2018-09-18T12:54:51.241Z,99078.40
2018-09-18T12:57:19.173Z,99072.08
2018-09-18T12:59:46.792Z,99076.40
2018-09-18T13:02:14.346Z,99070.92
2018-09-18T13:04:41.854Z,99072.47
2018-09-18T13:07:09.589Z,99070.36
2018-09-18T13:09:37.147Z,99062.52
2018-09-18T13:12:04.872Z,99067.79
2018-09-18T13:14:32.722Z,99069.97
2018-09-18T13:17:00.244Z,99065.64
2018-09-18T13:19:27.825Z,99065.40
2018-09-18T13:21:55.337Z,99071.76
2018-09-18T13:24:22.877Z,99069.72
2018-09-18T13:26:50.585Z,99065.22
2018-09-18T13:29:18.157Z,99071.94
2018-09-18T13:31:45.679Z,99072.70
2018-09-18T13:34:13.250Z,99088.92
2018-09-18T13:36:40.792Z,99064.94
2018-09-18T13:39:08.409Z,99069.94
2018-09-18T13:41:35.989Z,99070.28
2018-09-18T13:44:03.588Z,99078.34
2018-09-18T13:46:31.217Z,99083.23
2018-09-18T13:48:58.721Z,99076.75
2018-09-18T13:51:26.314Z,99071.72
2018-09-18T13:53:53.908Z,99073.93
2018-09-18T13:56:21.563Z,99068.47
2018-09-18T13:58:49.070Z,99070.46
2018-09-18T14:01:17.834Z,99062.84
2018-09-18T14:03:45.726Z,99077.61
2018-09-18T14:06:13.714Z,99075.25
2018-09-18T14:08:41.590Z,99076.17
2018-09-18T14:11:09.534Z,99068.72
2018-09-18T14:13:37.409Z,99079.11
2018-09-18T14:16:05.401Z,99063.09
2018-09-18T14:18:33.418Z,99068.95
2018-09-18T14:21:01.442Z,99075.61
2018-09-18T14:23:29.131Z,99075.95
2018-09-18T14:25:56.720Z,99076.91
2018-09-18T14:28:24.256Z,99070.53
2018-09-18T14:30:51.829Z,99078.30
2018-09-18T14:33:19.422Z,99088.22
2018-09-18T14:35:46.927Z,99077.60
2018-09-18T14:38:14.679Z,99077.91
2018-09-18T14:40:42.141Z,99081.56
2018-09-18T14:43:09.749Z,99086.20
2018-09-18T14:45:37.296Z,99087.81
2018-09-18T14:48:05.057Z,99089.47
2018-09-18T14:50:32.812Z,99088.63
2018-09-18T14:53:00.400Z,99080.30
2018-09-18T14:55:27.945Z,99087.64
2018-09-18T14:57:55.512Z,99086.34
2018-09-18T15:00:23.030Z,99090.72
2018-09-18T15:02:50.596Z,99097.73
2018-09-18T15:05:18.192Z,99095.09
2018-09-18T15:07:45.774Z,99099.30
2018-09-18T15:10:13.360Z,99093.41
2018-09-18T15:12:40.878Z,99104.97
2018-09-18T15:15:09.552Z,99110.47
2018-09-18T15:17:37.152Z,99111.20
2018-09-18T15:20:06.903Z,99109.51
2018-09-18T15:22:34.505Z,99117.66
2018-09-18T15:25:02.588Z,99114.20
2018-09-18T15:27:30.872Z,99111.94
2018-09-18T15:29:58.969Z,99120.67
2018-09-18T15:32:27.453Z,99109.41
2018-09-18T15:34:55.424Z,99124.36
2018-09-18T15:37:23.448Z,99115.05
2018-09-18T15:39:51.188Z,99120.49
2018-09-18T15:42:18.871Z,99119.20
2018-09-18T15:44:49.608Z,99114.95
2018-09-18T15:47:17.303Z,99125.98
2018-09-18T15:49:46.973Z,99125.12
2018-09-18T15:52:14.597Z,99133.67
2018-09-18T15:54:42.254Z,99130.58
2018-09-18T15:57:15.909Z,99134.45
2018-09-18T15:59:43.530Z,99134.36
2018-09-18T16:02:11.157Z,99135.78
2018-09-18T16:04:38.836Z,99139.55
2018-09-18T16:07:06.540Z,99134.59
2018-09-18T16:09:34.150Z,99138.42
2018-09-18T16:12:01.824Z,99137.91
2018-09-18T16:14:29.568Z,99138.11
2018-09-18T16:16:57.108Z,99137.02
2018-09-18T16:19:24.630Z,99131.30
2018-09-18T16:21:52.198Z,99139.16
2018-09-18T16:24:19.717Z,99137.80
2018-09-18T16:26:47.253Z,99139.97
2018-09-18T16:29:14.818Z,99143.11
2018-09-18T16:31:42.383Z,99133.63
2018-09-18T16:34:10.030Z,99143.72
2018-09-18T16:36:37.598Z,99146.72
2018-09-18T16:39:05.175Z,99144.02
2018-09-18T16:41:33.697Z,99143.94
2018-09-18T16:44:01.420Z,99148.80
2018-09-18T16:46:31.089Z,99149.11
2018-09-18T16:48:59.778Z,99153.42
2018-09-18T16:51:27.513Z,99155.36
2018-09-18T16:53:55.018Z,99156.89
2018-09-18T16:56:22.611Z,99157.97
2018-09-18T16:58:51.097Z,99156.52
2018-09-18T17:01:18.639Z,99164.59
2018-09-18T17:03:46.299Z,99161.00
2018-09-18T17:06:15.040Z,99158.97
2018-09-18T17:08:43.783Z,99164.25
2018-09-18T17:11:11.734Z,99168.70
2018-09-18T17:13:39.335Z,99169.38
2018-09-18T17:16:07.980Z,99171.00
2018-09-18T17:18:35.804Z,99175.56
2018-09-18T17:21:03.445Z,99174.71
2018-09-18T17:23:31.113Z,99181.02
2018-09-18T17:25:58.732Z,99183.09
2018-09-18T17:28:26.340Z,99192.01
2018-09-18T17:30:54.440Z,99195.49
2018-09-18T17:33:21.978Z,99197.47
2018-09-18T17:35:49.491Z,99206.72
2018-09-18T17:38:17.068Z,99212.36
2018-09-18T17:40:44.617Z,99212.20
2018-09-18T17:43:12.146Z,99221.09
2018-09-18T17:45:39.696Z,99223.63
2018-09-18T17:48:10.443Z,99227.23
2018-09-18T17:50:37.982Z,99233.94
2018-09-18T17:53:05.555Z,99242.80
2018-09-18T17:55:33.417Z,99253.30
2018-09-18T17:58:04.288Z,99254.41
2018-09-18T18:00:32.765Z,99256.13
2018-09-18T18:03:00.356Z,99266.38
2018-09-18T18:05:27.930Z,99276.95
2018-09-18T18:07:55.510Z,99274.19
2018-09-18T18:10:23.037Z,99277.36
2018-09-18T18:12:50.602Z,99282.87
2018-09-18T18:15:18.298Z,99289.37
2018-09-18T18:17:45.834Z,99298.11
2018-09-18T18:20:13.579Z,99304.34
2018-09-18T18:22:41.134Z,99303.39
2018-09-18T18:25:08.767Z,99316.22
2018-09-18T18:27:36.535Z,99319.58
2018-09-18T18:30:04.145Z,99328.92
2018-09-18T18:32:31.719Z,99335.03
2018-09-18T18:34:59.240Z,99340.27
2018-09-18T18:37:27.921Z,99337.34
2018-09-18T18:39:55.448Z,99334.88
2018-09-18T18:42:22.985Z,99349.41
2018-09-18T18:44:50.582Z,99347.28
2018-09-18T18:47:18.128Z,99356.67
2018-09-18T18:49:45.717Z,99356.34
2018-09-18T18:52:13.240Z,99362.83
2018-09-18T18:54:40.946Z,99364.05
2018-09-18T18:57:08.448Z,99364.05
2018-09-18T18:59:35.972Z,99375.17
2018-09-18T19:02:03.736Z,99381.42
2018-09-18T19:04:31.520Z,99384.42
2018-09-18T19:06:59.118Z,99392.36
2018-09-18T19:09:26.628Z,99387.52
2018-09-18T19:11:54.160Z,99387.81
2018-09-18T19:14:21.930Z,99394.41
2018-09-18T19:16:49.455Z,99400.14
2018-09-18T19:19:17.012Z,99404.41
2018-09-18T19:21:44.600Z,99397.80
2018-09-18T19:24:12.161Z,99401.40
2018-09-18T19:26:39.902Z,99411.02
2018-09-18T19:29:07.438Z,99413.28
2018-09-18T19:31:35.029Z,99416.33
2018-09-18T19:34:02.811Z,99420.75
2018-09-18T19:36:31.874Z,99420.88
2018-09-18T19:38:59.467Z,99424.30
2018-09-18T19:41:27.012Z,99423.05
2018-09-18T19:43:54.558Z,99425.67
2018-09-18T19:46:22.155Z,99423.53
2018-09-18T19:48:49.746Z,99426.97
2018-09-18T19:51:17.347Z,99430.34
2018-09-18T19:53:44.869Z,99428.16
2018-09-18T19:56:12.457Z,99427.69
2018-09-18T19:58:39.970Z,99425.84
2018-09-18T20:01:07.559Z,99432.59
2018-09-18T20:03:35.075Z,99432.45
2018-09-18T20:06:02.671Z,99436.08
2018-09-18T20:08:30.246Z,99436.07
2018-09-18T20:10:57.804Z,99444.14
2018-09-18T20:13:25.875Z,99438.45
2018-09-18T20:15:53.580Z,99447.44
2018-09-18T20:18:21.149Z,99454.33
2018-09-18T20:20:48.904Z,99459.02
2018-09-18T20:23:16.461Z,99467.67
2018-09-18T20:25:43.998Z,99467.80
2018-09-18T20:28:11.585Z,99471.73
2018-09-18T20:30:39.121Z,99473.28
2018-09-18T20:33:07.648Z,99477.61
2018-09-18T20:35:35.214Z,99479.22
2018-09-18T20:38:03.041Z,99481.92
2018-09-18T20:40:30.999Z,99474.09
2018-09-18T20:42:58.714Z,99479.52
2018-09-18T20:45:26.301Z,99481.51
2018-09-18T20:47:53.813Z,99480.38
2018-09-18T20:50:21.401Z,99481.00
2018-09-18T20:52:48.976Z,99473.45
2018-09-18T20:55:16.495Z,99477.66
2018-09-18T20:57:44.084Z,99473.97
2018-09-18T21:00:11.622Z,99474.75
2018-09-18T21:02:39.183Z,99475.91
2018-09-18T21:05:06.779Z,99481.52
2018-09-18T21:07:34.300Z,99478.67
2018-09-18T21:10:01.994Z,99484.83
2018-09-18T21:12:29.556Z,99483.23
2018-09-18T21:14:57.144Z,99482.86
2018-09-18T21:17:24.672Z,99484.09
2018-09-18T21:19:52.196Z,99485.55
2018-09-18T21:22:19.771Z,99488.75
2018-09-18T21:24:47.304Z,99480.82
2018-09-18T21:27:14.853Z,99486.56
2018-09-18T21:29:42.391Z,99480.20
2018-09-18T21:32:09.959Z,99481.97
2018-09-18T21:34:37.502Z,99491.30
2018-09-18T21:37:08.913Z,99487.16
2018-09-18T21:39:36.440Z,99490.48
2018-09-18T21:42:03.977Z,99492.19
2018-09-18T21:44:31.553Z,99495.81
2018-09-18T21:46:59.075Z,99494.86
2018-09-18T21:49:26.605Z,99492.94
2018-09-18T21:51:54.163Z,99500.98
2018-09-18T21:54:21.768Z,99496.40
2018-09-18T21:56:49.292Z,99497.18
2018-09-18T21:59:17.073Z,99501.42
2018-09-18T22:01:44.692Z,99494.16
2018-09-18T22:04:12.266Z,99506.19
2018-09-18T22:06:40.017Z,99510.58
2018-09-18T22:09:07.600Z,99508.81
2018-09-18T22:11:35.292Z,99508.53
2018-09-18T22:14:05.176Z,99508.85
2018-09-18T22:16:32.943Z,99509.44
2018-09-18T22:19:00.717Z,99506.99
2018-09-18T22:21:30.111Z,99522.42
2018-09-18T22:23:58.754Z,99525.12
2018-09-18T22:26:26.443Z,99525.62
2018-09-18T22:28:54.046Z,99528.47
2018-09-18T22:31:21.597Z,99537.44
2018-09-18T22:33:49.120Z,99537.87
2018-09-18T22:36:16.696Z,99543.10
2018-09-18T22:38:44.280Z,99539.78
2018-09-18T22:41:11.814Z,99546.41
2018-09-18T22:43:39.428Z,99551.28
2018-09-18T22:46:07.077Z,99551.28
2018-09-18T22:48:34.678Z,99551.05
2018-09-18T22:51:02.232Z,99549.89
2018-09-18T22:53:29.816Z,99549.11
2018-09-18T22:55:57.340Z,99547.77
2018-09-18T22:58:25.046Z,99551.14
2018-09-18T23:00:52.710Z,99559.15
2018-09-18T23:03:20.296Z,99561.28
2018-09-18T23:05:47.811Z,99559.22
2018-09-18T23:08:15.338Z,99552.10
2018-09-18T23:10:42.927Z,99555.48
2018-09-18T23:13:10.478Z,99561.13
2018-09-18T23:15:38.044Z,99563.11
2018-09-18T23:18:05.607Z,99564.16
2018-09-18T23:20:33.194Z,99571.11
2018-09-18T23:23:00.841Z,99570.17
2018-09-18T23:25:28.391Z,99579.80
2018-09-18T23:27:56.002Z,99575.58
2018-09-18T23:30:23.586Z,99583.02
2018-09-18T23:32:51.151Z,99573.25
2018-09-18T23:35:18.767Z,99577.53
2018-09-18T23:37:46.455Z,99568.73
2018-09-18T23:40:14.047Z,99569.52
2018-09-18T23:42:41.580Z,99565.96
2018-09-18T23:45:09.114Z,99565.38
2018-09-18T23:47:36.937Z,99571.00
2018-09-18T23:50:04.532Z,99577.70
2018-09-18T23:52:32.875Z,99574.42
2018-09-18T23:55:00.953Z,99570.14
2018-09-18T23:57:28.559Z,99566.22
2018-09-18T23:59:56.135Z,99566.95
